createdAt,value
2019-05-16T00:01:30.000Z,79.27
2019-05-16T00:04:00.449Z,80.25
2019-05-16T00:06:31.191Z,80.50
2019-05-16T00:09:01.497Z,80.76
2019-05-16T00:11:31.836Z,80.97
2019-05-16T00:14:02.181Z,81.49
2019-05-16T00:16:38.368Z,80.90
2019-05-16T00:19:10.445Z,81.73
2019-05-16T00:21:40.869Z,81.65
2019-05-16T00:24:13.859Z,82.10
2019-05-16T00:26:44.575Z,82.53
2019-05-16T00:29:15.086Z,81.64
2019-05-16T00:31:45.480Z,81.93
2019-05-16T00:34:18.750Z,82.65
2019-05-16T00:36:49.103Z,82.78
2019-05-16T00:39:19.668Z,83.12
2019-05-16T00:41:50.169Z,82.93
2019-05-16T00:44:20.500Z,83.18
2019-05-16T00:46:50.917Z,83.47
2019-05-16T00:49:21.264Z,83.32
2019-05-16T00:51:51.770Z,83.16
2019-05-16T00:54:28.513Z,83.39
2019-05-16T00:56:59.692Z,83.64
2019-05-16T00:59:34.273Z,84.38
2019-05-16T01:02:05.403Z,85.31
2019-05-16T01:04:38.056Z,85.66
2019-05-16T01:07:08.329Z,85.01
2019-05-16T01:09:38.742Z,84.94
2019-05-16T01:12:09.998Z,84.79
2019-05-16T01:14:40.345Z,84.65
2019-05-16T01:17:10.741Z,84.11
2019-05-16T01:19:40.931Z,84.87
2019-05-16T01:22:11.378Z,85.37
2019-05-16T01:24:41.656Z,84.72
2019-05-16T01:27:12.056Z,83.38
2019-05-16T01:29:42.576Z,83.53
2019-05-16T01:32:14.341Z,83.85
2019-05-16T01:34:44.685Z,84.00
2019-05-16T01:37:15.089Z,84.43
2019-05-16T01:39:45.674Z,83.81
2019-05-16T01:42:18.296Z,84.11
2019-05-16T01:44:48.790Z,84.16
2019-05-16T01:47:19.193Z,85.09
2019-05-16T01:49:49.572Z,85.73
2019-05-16T01:52:19.976Z,86.01
2019-05-16T01:54:50.395Z,86.35
2019-05-16T01:57:20.716Z,86.04
2019-05-16T01:59:51.154Z,86.56
2019-05-16T02:02:21.408Z,86.69
2019-05-16T02:04:51.905Z,86.30
2019-05-16T02:07:24.403Z,86.30
2019-05-16T02:09:54.875Z,86.29
2019-05-16T02:12:27.681Z,86.54
2019-05-16T02:15:00.536Z,86.67
2019-05-16T02:17:31.193Z,86.90
2019-05-16T02:20:01.474Z,87.45
2019-05-16T02:22:33.723Z,87.49
2019-05-16T02:25:05.068Z,87.52
2019-05-16T02:27:38.147Z,87.83
2019-05-16T02:30:12.442Z,88.25
2019-05-16T02:32:42.146Z,88.50
2019-05-16T02:35:12.715Z,88.33
2019-05-16T02:37:43.307Z,88.23
2019-05-16T02:40:21.112Z,88.21
2019-05-16T02:42:51.841Z,88.39
2019-05-16T02:45:24.717Z,88.68
2019-05-16T02:47:54.560Z,88.05
2019-05-16T02:50:25.040Z,87.68
2019-05-16T02:52:55.361Z,88.27
2019-05-16T02:55:26.310Z,88.92
2019-05-16T02:57:56.682Z,89.14
2019-05-16T03:00:41.913Z,89.46
2019-05-16T03:03:11.972Z,89.30
2019-05-16T03:05:43.265Z,89.24
2019-05-16T03:08:14.055Z,89.29
2019-05-16T03:10:45.190Z,89.59
2019-05-16T03:13:17.775Z,89.65
2019-05-16T03:15:51.821Z,89.94
2019-05-16T03:18:26.252Z,89.75
2019-05-16T03:21:02.160Z,89.59
2019-05-16T03:23:32.842Z,89.13
2019-05-16T03:26:05.573Z,89.12
2019-05-16T03:28:35.999Z,89.53
2019-05-16T03:31:06.636Z,90.27
2019-05-16T03:33:43.448Z,90.22
2019-05-16T03:36:14.767Z,90.12
2019-05-16T03:38:41.502Z,90.74
2019-05-16T03:41:15.634Z,90.14
2019-05-16T03:43:46.139Z,89.73
2019-05-16T03:46:16.464Z,89.01
2019-05-16T03:48:46.873Z,89.70
2019-05-16T03:51:17.229Z,89.68
2019-05-16T03:53:50.601Z,89.32
2019-05-16T03:56:21.837Z,88.82
2019-05-16T03:58:54.726Z,88.40
2019-05-16T04:01:31.627Z,88.54
2019-05-16T04:04:02.113Z,88.64
2019-05-16T04:06:32.412Z,88.02
2019-05-16T04:09:02.639Z,87.63
2019-05-16T04:11:32.893Z,87.92
2019-05-16T04:14:03.137Z,87.63
2019-05-16T04:16:36.308Z,87.50
2019-05-16T04:19:06.991Z,87.55
2019-05-16T04:21:37.336Z,87.02
2019-05-16T04:24:07.782Z,87.08
2019-05-16T04:26:40.936Z,86.62
2019-05-16T04:29:11.807Z,87.41
2019-05-16T04:31:43.673Z,86.78
2019-05-16T04:34:14.272Z,86.58
2019-05-16T04:36:44.573Z,86.70
2019-05-16T04:39:14.956Z,86.24
2019-05-16T04:41:45.665Z,84.91
2019-05-16T04:44:16.042Z,83.99
2019-05-16T04:46:46.715Z,84.12
2019-05-16T04:49:17.182Z,83.71
2019-05-16T04:51:47.788Z,83.29
2019-05-16T04:54:23.746Z,83.28
2019-05-16T04:56:55.113Z,81.65
2019-05-16T04:59:25.848Z,81.62
2019-05-16T05:01:56.058Z,81.33
2019-05-16T05:04:26.619Z,81.25
2019-05-16T05:06:57.138Z,80.01
2019-05-16T05:09:31.694Z,79.20
2019-05-16T05:12:04.684Z,78.76
2019-05-16T05:14:34.531Z,79.15
2019-05-16T05:17:10.657Z,79.11
2019-05-16T05:19:41.418Z,79.36
2019-05-16T05:22:12.275Z,79.45
2019-05-16T05:24:42.894Z,77.98
2019-05-16T05:27:13.285Z,76.98
2019-05-16T05:29:43.803Z,76.95
2019-05-16T05:32:14.678Z,76.46
2019-05-16T05:34:45.227Z,76.26
2019-05-16T05:37:15.549Z,76.22
2019-05-16T05:39:45.908Z,75.47
2019-05-16T05:42:16.425Z,74.79
2019-05-16T05:44:46.977Z,75.29
2019-05-16T05:47:19.851Z,73.40
2019-05-16T05:49:50.383Z,73.49
2019-05-16T05:52:20.996Z,74.36
2019-05-16T05:54:51.807Z,74.11
2019-05-16T05:57:25.330Z,73.92
2019-05-16T05:59:55.532Z,72.61
2019-05-16T06:02:31.044Z,71.79
2019-05-16T06:05:01.339Z,71.77
2019-05-16T06:07:37.276Z,71.49
2019-05-16T06:10:13.867Z,71.62
2019-05-16T06:12:50.098Z,71.12
2019-05-16T06:15:23.184Z,71.94
2019-05-16T06:18:00.274Z,71.12
2019-05-16T06:20:33.865Z,71.65
2019-05-16T06:23:07.292Z,70.77
2019-05-16T06:25:40.419Z,71.17
2019-05-16T06:28:13.035Z,70.71
2019-05-16T06:30:43.494Z,70.49
2019-05-16T06:33:14.000Z,70.16
2019-05-16T06:35:47.096Z,70.29
2019-05-16T06:38:17.626Z,71.29
2019-05-16T06:40:49.945Z,71.04
2019-05-16T06:43:20.737Z,70.93
2019-05-16T06:45:51.884Z,69.24
2019-05-16T06:48:22.696Z,68.89
2019-05-16T06:50:53.629Z,68.97
2019-05-16T06:53:24.331Z,69.22
2019-05-16T06:55:59.932Z,70.00
2019-05-16T06:58:30.531Z,69.05
2019-05-16T07:01:03.887Z,68.71
2019-05-16T07:03:34.292Z,68.98
2019-05-16T07:06:05.008Z,70.13
2019-05-16T07:08:35.539Z,68.51
2019-05-16T07:11:05.908Z,70.22
2019-05-16T07:13:36.302Z,69.64
2019-05-16T07:16:06.749Z,69.33
2019-05-16T07:18:39.595Z,68.63
2019-05-16T07:21:10.926Z,67.99
2019-05-16T07:23:44.242Z,68.36
2019-05-16T07:26:26.633Z,68.94
2019-05-16T07:28:57.190Z,68.22
2019-05-16T07:31:30.046Z,69.09
2019-05-16T07:34:00.948Z,67.85
2019-05-16T07:36:31.843Z,67.14
2019-05-16T07:39:02.663Z,68.59
2019-05-16T07:41:33.302Z,67.40
2019-05-16T07:44:03.738Z,66.89
2019-05-16T07:46:33.990Z,67.11
2019-05-16T07:49:04.738Z,67.08
2019-05-16T07:51:35.050Z,67.42
2019-05-16T07:54:10.347Z,67.29
2019-05-16T07:56:40.927Z,68.17
2019-05-16T07:59:11.491Z,67.21
2019-05-16T08:01:43.360Z,66.54
2019-05-16T08:04:13.917Z,66.63
2019-05-16T08:06:50.336Z,66.51
2019-05-16T08:09:21.193Z,66.25
2019-05-16T08:11:57.681Z,64.23
2019-05-16T08:14:30.397Z,66.31
2019-05-16T08:17:01.271Z,66.28
2019-05-16T08:19:31.946Z,66.37
2019-05-16T08:22:02.385Z,65.29
2019-05-16T08:24:36.129Z,65.66
2019-05-16T08:27:05.150Z,65.50
2019-05-16T08:29:44.680Z,66.01
2019-05-16T08:32:15.118Z,65.04
2019-05-16T08:34:51.628Z,66.38
2019-05-16T08:39:53.999Z,67.20
2019-05-16T08:42:24.510Z,66.79
2019-05-16T08:45:01.930Z,65.43
2019-05-16T08:47:35.740Z,64.88
2019-05-16T08:50:13.703Z,64.91
2019-05-16T08:52:43.386Z,63.92
2019-05-16T08:55:13.830Z,64.98
2019-05-16T08:57:44.773Z,63.50
2019-05-16T09:00:21.750Z,61.75
2019-05-16T09:02:52.527Z,62.79
2019-05-16T09:05:26.471Z,63.58
2019-05-16T09:08:02.644Z,61.22
2019-05-16T09:10:34.105Z,66.22
2019-05-16T09:10:59.076Z,61.48
2019-05-16T09:13:16.796Z,60.45
2019-05-16T09:15:52.762Z,59.35
2019-05-16T09:18:23.264Z,59.86
2019-05-16T09:20:59.607Z,58.12
2019-05-16T09:23:29.844Z,57.16
2019-05-16T09:26:00.257Z,58.13
2019-05-16T09:28:30.707Z,57.15
2019-05-16T09:31:07.256Z,57.87
2019-05-16T09:33:40.345Z,57.93
2019-05-16T09:36:22.110Z,57.68
2019-05-16T09:38:52.609Z,57.71
2019-05-16T09:41:23.023Z,57.64
2019-05-16T09:46:29.641Z,57.54
2019-05-16T09:49:16.659Z,58.00
2019-05-16T09:51:32.739Z,56.43
2019-05-16T09:54:03.322Z,57.98
2019-05-16T09:56:33.706Z,57.36
2019-05-16T09:59:06.744Z,55.69
2019-05-16T10:01:37.192Z,56.50
2019-05-16T10:04:07.807Z,58.11
2019-05-16T10:06:43.152Z,58.29
2019-05-16T10:09:13.627Z,56.79
2019-05-16T10:11:49.426Z,57.99
2019-05-16T10:14:18.773Z,56.18
2019-05-16T10:16:49.172Z,54.45
2019-05-16T10:19:19.622Z,53.84
2019-05-16T10:21:50.081Z,53.46
2019-05-16T10:24:20.698Z,55.04
2019-05-16T10:26:54.018Z,55.43
2019-05-16T10:29:23.367Z,54.08
2019-05-16T10:31:53.847Z,53.54
2019-05-16T10:34:26.433Z,52.61
2019-05-16T10:36:57.543Z,55.40
2019-05-16T10:39:28.178Z,55.31
2019-05-16T10:41:58.788Z,55.27
2019-05-16T10:44:29.284Z,54.99
2019-05-16T10:46:59.917Z,54.96
2019-05-16T10:49:36.814Z,55.88
2019-05-16T10:52:02.356Z,55.06
2019-05-16T10:54:32.694Z,53.24
2019-05-16T10:57:03.080Z,53.43
2019-05-16T11:02:07.484Z,50.50
2019-05-16T11:04:53.334Z,52.15
2019-05-16T11:07:10.691Z,52.77
2019-05-16T11:09:54.765Z,52.73
2019-05-16T11:12:14.078Z,53.11
2019-05-16T11:14:48.586Z,49.80
2019-05-16T11:17:19.226Z,51.86
2019-05-16T11:19:50.165Z,52.63
2019-05-16T11:22:20.559Z,51.56
2019-05-16T11:24:51.350Z,50.40
2019-05-16T11:27:21.709Z,51.02
2019-05-16T11:29:52.037Z,50.98
2019-05-16T11:32:22.484Z,49.76
2019-05-16T11:34:52.955Z,51.22
2019-05-16T11:37:23.403Z,50.95
2019-05-16T11:39:53.786Z,52.42
2019-05-16T11:42:24.118Z,50.74
2019-05-16T11:44:58.082Z,51.93
2019-05-16T11:47:28.405Z,52.11
2019-05-16T11:49:59.110Z,53.79
2019-05-16T11:52:29.960Z,52.54
2019-05-16T11:55:00.314Z,52.57
2019-05-16T11:57:30.844Z,52.26
2019-05-16T12:00:01.269Z,52.46
2019-05-16T12:02:31.498Z,53.98
2019-05-16T12:05:01.791Z,54.98
2019-05-16T12:07:34.268Z,55.31
2019-05-16T12:10:04.263Z,55.61
2019-05-16T12:12:36.929Z,55.25
2019-05-16T12:15:08.099Z,55.38
2019-05-16T12:17:38.423Z,55.37
2019-05-16T12:20:09.607Z,54.72
2019-05-16T12:22:39.840Z,53.97
2019-05-16T12:25:10.785Z,54.43
2019-05-16T12:27:42.464Z,54.49
2019-05-16T12:30:14.219Z,54.12
2019-05-16T12:32:46.906Z,54.23
2019-05-16T12:35:17.734Z,50.75
2019-05-16T12:37:51.432Z,50.41
2019-05-16T12:40:20.573Z,53.16
2019-05-16T12:42:54.099Z,52.25
2019-05-16T12:45:22.947Z,52.00
2019-05-16T12:47:53.455Z,48.71
2019-05-16T12:50:24.120Z,48.93
2019-05-16T12:52:56.809Z,49.10
2019-05-16T12:55:27.875Z,50.96
2019-05-16T12:58:12.317Z,50.19
2019-05-16T13:00:30.265Z,51.58
2019-05-16T13:03:00.609Z,51.21
2019-05-16T13:05:31.122Z,51.66
2019-05-16T13:08:01.460Z,51.45
2019-05-16T13:10:37.742Z,52.05
2019-05-16T13:13:07.808Z,51.01
2019-05-16T13:15:41.809Z,50.50
2019-05-16T13:18:10.271Z,49.80
2019-05-16T13:20:41.374Z,49.98
2019-05-16T13:23:18.125Z,51.58
2019-05-16T13:25:44.191Z,51.28
2019-05-16T13:28:14.635Z,49.65
2019-05-16T13:30:47.126Z,49.67
2019-05-16T13:33:17.894Z,49.07
2019-05-16T13:35:48.216Z,49.95
2019-05-16T13:38:18.621Z,51.52
2019-05-16T13:40:49.414Z,50.56
2019-05-16T13:43:19.871Z,50.29
2019-05-16T13:45:50.435Z,50.65
2019-05-16T13:48:20.686Z,51.06
2019-05-16T13:50:51.901Z,48.82
2019-05-16T13:53:22.220Z,49.45
2019-05-16T13:55:53.253Z,49.83
2019-05-16T13:58:23.394Z,49.02
2019-05-16T14:00:57.303Z,49.99
2019-05-16T14:03:27.853Z,49.96
2019-05-16T14:05:58.393Z,50.85
2019-05-16T14:08:28.920Z,50.60
2019-05-16T14:11:02.750Z,48.18
2019-05-16T21:40:26.327Z,84.58
2019-05-16T21:46:11.695Z,86.04
2019-05-16T21:49:00.747Z,86.70
2019-05-16T21:51:38.418Z,87.32
2019-05-16T21:54:21.605Z,88.28
2019-05-16T21:56:54.095Z,88.24
2019-05-16T21:59:34.409Z,88.68
2019-05-16T22:05:06.287Z,89.83
2019-05-16T22:07:38.428Z,90.13
2019-05-16T22:10:10.949Z,90.63
2019-05-16T22:12:47.497Z,90.97
2019-05-16T22:15:41.458Z,91.88
2019-05-16T22:18:17.612Z,91.96
2019-05-16T22:21:02.257Z,92.12
2019-05-16T22:30:16.478Z,93.91
2019-05-16T22:33:51.351Z,94.04
2019-05-16T22:36:57.366Z,93.82
2019-05-16T22:50:18.499Z,94.73
2019-05-16T22:56:33.634Z,96.01
2019-05-16T23:26:40.926Z,100.00
2019-05-16T23:29:39.639Z,99.66
2019-05-16T23:32:51.969Z,100.00
2019-05-16T23:35:50.567Z,100.00
2019-05-16T23:39:31.802Z,100.00
2019-05-16T23:51:52.417Z,100.00
2019-05-16T23:54:47.535Z,100.00
